sensor_id;sensor_type;location;lat;lon;timestamp;temperature;humidity
18169;DHT22;49877;50.398;30.324;2022-08-18T00:02:27;22.40;99.90
18169;DHT22;49877;50.398;30.324;2022-08-18T00:04:56;22.40;99.90
18169;DHT22;49877;50.398;30.324;2022-08-18T00:07:28;22.30;99.90
18169;DHT22;49877;50.398;30.324;2022-08-18T00:09:55;22.30;99.90
18169;DHT22;49877;50.398;30.324;2022-08-18T00:12:29;22.30;99.90
18169;DHT22;49877;50.398;30.324;2022-08-18T00:14:56;22.30;99.90
18169;DHT22;49877;50.398;30.324;2022-08-18T00:17:26;22.20;99.90
18169;DHT22;49877;50.398;30.324;2022-08-18T00:19:53;22.20;99.90
18169;DHT22;49877;50.398;30.324;2022-08-18T00:22:22;22.20;99.90
18169;DHT22;49877;50.398;30.324;2022-08-18T00:24:51;22.20;99.90
18169;DHT22;49877;50.398;30.324;2022-08-18T00:27:20;22.10;99.90
18169;DHT22;49877;50.398;30.324;2022-08-18T00:29:47;22.10;99.90
18169;DHT22;49877;50.398;30.324;2022-08-18T00:32:16;22.00;99.90
18169;DHT22;49877;50.398;30.324;2022-08-18T00:34:44;21.90;99.90
18169;DHT22;49877;50.398;30.324;2022-08-18T00:37:11;21.80;99.90
18169;DHT22;49877;50.398;30.324;2022-08-18T00:39:39;21.80;99.90
18169;DHT22;49877;50.398;30.324;2022-08-18T00:42:14;21.80;99.90
18169;DHT22;49877;50.398;30.324;2022-08-18T00:44:41;21.70;99.90
18169;DHT22;49877;50.398;30.324;2022-08-18T00:47:08;21.70;99.90
18169;DHT22;49877;50.398;30.324;2022-08-18T00:49:36;21.70;99.90
18169;DHT22;49877;50.398;30.324;2022-08-18T00:52:04;21.70;99.90
18169;DHT22;49877;50.398;30.324;2022-08-18T00:54:32;21.60;99.90
18169;DHT22;49877;50.398;30.324;2022-08-18T00:57:04;21.60;99.90
18169;DHT22;49877;50.398;30.324;2022-08-18T00:59:37;21.50;99.90
18169;DHT22;49877;50.398;30.324;2022-08-18T01:02:10;21.50;99.90
18169;DHT22;49877;50.398;30.324;2022-08-18T01:04:45;21.50;99.90
18169;DHT22;49877;50.398;30.324;2022-08-18T01:07:16;21.40;99.90
18169;DHT22;49877;50.398;30.324;2022-08-18T01:09:45;21.40;99.90
18169;DHT22;49877;50.398;30.324;2022-08-18T01:12:13;21.40;99.90
18169;DHT22;49877;50.398;30.324;2022-08-18T01:14:40;21.40;99.90
18169;DHT22;49877;50.398;30.324;2022-08-18T01:17:08;21.30;99.90
18169;DHT22;49877;50.398;30.324;2022-08-18T01:19:52;21.30;99.90
18169;DHT22;49877;50.398;30.324;2022-08-18T01:22:48;21.30;99.90
18169;DHT22;49877;50.398;30.324;2022-08-18T01:25:17;21.30;99.90
18169;DHT22;49877;50.398;30.324;2022-08-18T01:28:03;21.20;99.90
18169;DHT22;49877;50.398;30.324;2022-08-18T01:30:42;21.20;99.90
18169;DHT22;49877;50.398;30.324;2022-08-18T01:33:09;21.20;99.90
18169;DHT22;49877;50.398;30.324;2022-08-18T01:35:38;21.20;99.90
18169;DHT22;49877;50.398;30.324;2022-08-18T01:38:07;21.10;99.90
18169;DHT22;49877;50.398;30.324;2022-08-18T01:40:36;21.10;99.90
18169;DHT22;49877;50.398;30.324;2022-08-18T01:43:03;21.10;99.90
18169;DHT22;49877;50.398;30.324;2022-08-18T01:45:30;21.00;99.90
18169;DHT22;49877;50.398;30.324;2022-08-18T01:47:59;21.00;99.90
18169;DHT22;49877;50.398;30.324;2022-08-18T01:50:26;20.90;99.90
18169;DHT22;49877;50.398;30.324;2022-08-18T01:52:54;20.90;99.90
18169;DHT22;49877;50.398;30.324;2022-08-18T01:55:23;20.90;99.90
18169;DHT22;49877;50.398;30.324;2022-08-18T01:57:53;20.90;99.90
18169;DHT22;49877;50.398;30.324;2022-08-18T02:00:20;20.90;99.90
18169;DHT22;49877;50.398;30.324;2022-08-18T02:02:47;20.80;99.90
18169;DHT22;49877;50.398;30.324;2022-08-18T02:05:19;20.80;99.90
18169;DHT22;49877;50.398;30.324;2022-08-18T02:07:49;20.80;99.90
18169;DHT22;49877;50.398;30.324;2022-08-18T02:10:16;20.80;99.90
18169;DHT22;49877;50.398;30.324;2022-08-18T02:12:45;20.80;99.90
18169;DHT22;49877;50.398;30.324;2022-08-18T02:15:12;20.70;99.90
18169;DHT22;49877;50.398;30.324;2022-08-18T02:17:42;20.70;99.90
18169;DHT22;49877;50.398;30.324;2022-08-18T02:20:13;20.70;99.90
18169;DHT22;49877;50.398;30.324;2022-08-18T02:22:40;20.70;99.90
18169;DHT22;49877;50.398;30.324;2022-08-18T02:25:08;20.70;99.90
18169;DHT22;49877;50.398;30.324;2022-08-18T02:27:36;20.70;99.90
18169;DHT22;49877;50.398;30.324;2022-08-18T02:30:07;20.70;99.90
18169;DHT22;49877;50.398;30.324;2022-08-18T02:32:35;20.70;99.90
18169;DHT22;49877;50.398;30.324;2022-08-18T02:35:02;20.70;99.90
18169;DHT22;49877;50.398;30.324;2022-08-18T02:37:29;20.70;99.90
18169;DHT22;49877;50.398;30.324;2022-08-18T02:39:56;20.70;99.90
18169;DHT22;49877;50.398;30.324;2022-08-18T02:42:23;20.70;99.90
18169;DHT22;49877;50.398;30.324;2022-08-18T02:44:50;20.70;99.90
18169;DHT22;49877;50.398;30.324;2022-08-18T02:47:20;20.70;99.90
18169;DHT22;49877;50.398;30.324;2022-08-18T02:49:47;20.60;99.90
18169;DHT22;49877;50.398;30.324;2022-08-18T02:52:14;20.60;99.90
18169;DHT22;49877;50.398;30.324;2022-08-18T02:54:42;20.60;99.90
18169;DHT22;49877;50.398;30.324;2022-08-18T02:57:11;20.60;99.90
18169;DHT22;49877;50.398;30.324;2022-08-18T02:59:39;20.50;99.90
18169;DHT22;49877;50.398;30.324;2022-08-18T03:02:07;20.50;99.90
18169;DHT22;49877;50.398;30.324;2022-08-18T03:04:36;20.50;99.90
18169;DHT22;49877;50.398;30.324;2022-08-18T03:07:05;20.50;99.90
18169;DHT22;49877;50.398;30.324;2022-08-18T03:09:32;20.50;99.90
18169;DHT22;49877;50.398;30.324;2022-08-18T03:12:00;20.50;99.90
18169;DHT22;49877;50.398;30.324;2022-08-18T03:14:28;20.50;99.90
18169;DHT22;49877;50.398;30.324;2022-08-18T03:16:55;20.50;99.90
18169;DHT22;49877;50.398;30.324;2022-08-18T03:19:23;20.50;99.90
18169;DHT22;49877;50.398;30.324;2022-08-18T03:21:51;20.50;99.90
18169;DHT22;49877;50.398;30.324;2022-08-18T03:24:19;20.50;99.90
18169;DHT22;49877;50.398;30.324;2022-08-18T03:26:46;20.50;99.90
18169;DHT22;49877;50.398;30.324;2022-08-18T03:29:13;20.50;99.90
18169;DHT22;49877;50.398;30.324;2022-08-18T03:31:42;20.50;99.90
18169;DHT22;49877;50.398;30.324;2022-08-18T03:34:10;20.50;99.90
18169;DHT22;49877;50.398;30.324;2022-08-18T03:36:37;20.50;99.90
18169;DHT22;49877;50.398;30.324;2022-08-18T03:39:08;20.60;99.90
18169;DHT22;49877;50.398;30.324;2022-08-18T03:41:36;20.60;99.90
18169;DHT22;49877;50.398;30.324;2022-08-18T03:44:04;20.60;99.90
18169;DHT22;49877;50.398;30.324;2022-08-18T03:46:32;20.60;99.90
18169;DHT22;49877;50.398;30.324;2022-08-18T03:48:59;20.50;99.90
18169;DHT22;49877;50.398;30.324;2022-08-18T03:51:29;20.50;99.90
18169;DHT22;49877;50.398;30.324;2022-08-18T03:53:59;20.50;99.90
18169;DHT22;49877;50.398;30.324;2022-08-18T03:56:29;20.60;99.90
18169;DHT22;49877;50.398;30.324;2022-08-18T03:59:00;20.60;99.90
18169;DHT22;49877;50.398;30.324;2022-08-18T04:01:32;20.60;99.90
18169;DHT22;49877;50.398;30.324;2022-08-18T04:04:01;20.60;99.90
18169;DHT22;49877;50.398;30.324;2022-08-18T04:06:30;20.60;99.90
18169;DHT22;49877;50.398;30.324;2022-08-18T04:09:03;20.60;99.90
18169;DHT22;49877;50.398;30.324;2022-08-18T04:11:35;20.60;99.90
18169;DHT22;49877;50.398;30.324;2022-08-18T04:14:02;20.60;99.90
18169;DHT22;49877;50.398;30.324;2022-08-18T04:16:30;20.60;99.90
18169;DHT22;49877;50.398;30.324;2022-08-18T04:18:57;20.60;99.90
18169;DHT22;49877;50.398;30.324;2022-08-18T04:21:27;20.70;99.90
18169;DHT22;49877;50.398;30.324;2022-08-18T04:23:56;20.60;99.90
18169;DHT22;49877;50.398;30.324;2022-08-18T04:26:24;20.70;99.90
18169;DHT22;49877;50.398;30.324;2022-08-18T04:28:52;20.70;99.90
18169;DHT22;49877;50.398;30.324;2022-08-18T04:31:19;20.80;99.90
18169;DHT22;49877;50.398;30.324;2022-08-18T04:33:49;20.80;99.90
18169;DHT22;49877;50.398;30.324;2022-08-18T04:36:15;20.80;99.90
18169;DHT22;49877;50.398;30.324;2022-08-18T04:38:43;20.90;99.90
18169;DHT22;49877;50.398;30.324;2022-08-18T04:41:11;20.90;99.90
18169;DHT22;49877;50.398;30.324;2022-08-18T04:43:39;20.90;99.90
18169;DHT22;49877;50.398;30.324;2022-08-18T04:46:08;20.90;99.90
18169;DHT22;49877;50.398;30.324;2022-08-18T04:48:37;20.90;99.90
18169;DHT22;49877;50.398;30.324;2022-08-18T04:51:06;21.00;99.90
18169;DHT22;49877;50.398;30.324;2022-08-18T04:53:34;21.00;99.90
18169;DHT22;49877;50.398;30.324;2022-08-18T04:56:19;21.10;99.90
18169;DHT22;49877;50.398;30.324;2022-08-18T04:58:52;21.10;99.90
18169;DHT22;49877;50.398;30.324;2022-08-18T05:01:24;21.10;99.90
18169;DHT22;49877;50.398;30.324;2022-08-18T05:03:52;21.10;99.90
18169;DHT22;49877;50.398;30.324;2022-08-18T05:06:21;21.10;99.90
18169;DHT22;49877;50.398;30.324;2022-08-18T05:08:50;21.20;99.90
18169;DHT22;49877;50.398;30.324;2022-08-18T05:11:18;21.20;99.90
18169;DHT22;49877;50.398;30.324;2022-08-18T05:13:45;21.30;99.90
18169;DHT22;49877;50.398;30.324;2022-08-18T05:16:12;21.30;99.90
18169;DHT22;49877;50.398;30.324;2022-08-18T05:18:41;21.30;99.90
18169;DHT22;49877;50.398;30.324;2022-08-18T05:21:08;21.30;99.90
18169;DHT22;49877;50.398;30.324;2022-08-18T05:23:39;21.40;99.90
18169;DHT22;49877;50.398;30.324;2022-08-18T05:26:06;21.40;99.90
18169;DHT22;49877;50.398;30.324;2022-08-18T05:28:33;21.50;99.90
18169;DHT22;49877;50.398;30.324;2022-08-18T05:31:05;21.50;99.90
18169;DHT22;49877;50.398;30.324;2022-08-18T05:33:33;21.60;99.90
18169;DHT22;49877;50.398;30.324;2022-08-18T05:36:04;21.60;99.90
18169;DHT22;49877;50.398;30.324;2022-08-18T05:38:39;21.60;99.90
18169;DHT22;49877;50.398;30.324;2022-08-18T05:41:14;21.70;99.90
18169;DHT22;49877;50.398;30.324;2022-08-18T05:43:45;21.70;99.90
18169;DHT22;49877;50.398;30.324;2022-08-18T05:46:13;21.80;99.90
18169;DHT22;49877;50.398;30.324;2022-08-18T05:48:40;21.80;99.90
18169;DHT22;49877;50.398;30.324;2022-08-18T05:51:14;21.90;99.90
18169;DHT22;49877;50.398;30.324;2022-08-18T05:53:42;21.90;99.90
18169;DHT22;49877;50.398;30.324;2022-08-18T05:56:31;22.00;99.90
18169;DHT22;49877;50.398;30.324;2022-08-18T05:59:14;22.00;99.90
18169;DHT22;49877;50.398;30.324;2022-08-18T06:01:45;22.00;99.90
18169;DHT22;49877;50.398;30.324;2022-08-18T06:04:24;22.00;99.90
18169;DHT22;49877;50.398;30.324;2022-08-18T06:06:54;22.10;99.90
18169;DHT22;49877;50.398;30.324;2022-08-18T06:09:27;22.10;99.90
18169;DHT22;49877;50.398;30.324;2022-08-18T06:12:00;22.20;99.90
18169;DHT22;49877;50.398;30.324;2022-08-18T06:14:30;22.20;99.90
18169;DHT22;49877;50.398;30.324;2022-08-18T06:17:06;22.30;99.90
18169;DHT22;49877;50.398;30.324;2022-08-18T06:19:43;22.30;99.90
18169;DHT22;49877;50.398;30.324;2022-08-18T06:22:26;22.40;99.90
18169;DHT22;49877;50.398;30.324;2022-08-18T06:25:01;22.50;99.90
18169;DHT22;49877;50.398;30.324;2022-08-18T06:27:37;22.50;99.90
18169;DHT22;49877;50.398;30.324;2022-08-18T06:30:11;22.60;99.90
18169;DHT22;49877;50.398;30.324;2022-08-18T06:32:53;22.60;99.90
18169;DHT22;49877;50.398;30.324;2022-08-18T06:35:33;22.70;99.90
18169;DHT22;49877;50.398;30.324;2022-08-18T06:38:19;22.70;99.90
18169;DHT22;49877;50.398;30.324;2022-08-18T06:41:10;22.80;99.90
18169;DHT22;49877;50.398;30.324;2022-08-18T06:43:55;22.80;99.90
18169;DHT22;49877;50.398;30.324;2022-08-18T06:46:31;22.90;99.90
18169;DHT22;49877;50.398;30.324;2022-08-18T06:49:03;22.90;99.90
18169;DHT22;49877;50.398;30.324;2022-08-18T06:51:31;23.00;99.90
18169;DHT22;49877;50.398;30.324;2022-08-18T06:54:02;23.10;99.90
18169;DHT22;49877;50.398;30.324;2022-08-18T06:56:44;23.10;99.90
18169;DHT22;49877;50.398;30.324;2022-08-18T06:59:18;23.20;99.90
18169;DHT22;49877;50.398;30.324;2022-08-18T07:01:49;23.20;99.90
18169;DHT22;49877;50.398;30.324;2022-08-18T07:04:36;23.30;99.90
18169;DHT22;49877;50.398;30.324;2022-08-18T07:07:15;23.50;99.90
18169;DHT22;49877;50.398;30.324;2022-08-18T07:09:44;23.50;99.90
18169;DHT22;49877;50.398;30.324;2022-08-18T07:12:19;23.60;99.90
18169;DHT22;49877;50.398;30.324;2022-08-18T07:14:48;23.60;99.90
18169;DHT22;49877;50.398;30.324;2022-08-18T07:17:20;23.60;99.90
18169;DHT22;49877;50.398;30.324;2022-08-18T07:19:55;23.60;99.90
18169;DHT22;49877;50.398;30.324;2022-08-18T07:22:22;23.70;99.90
18169;DHT22;49877;50.398;30.324;2022-08-18T07:24:52;23.70;99.90
18169;DHT22;49877;50.398;30.324;2022-08-18T07:27:21;23.80;99.90
18169;DHT22;49877;50.398;30.324;2022-08-18T07:30:02;23.80;99.90
18169;DHT22;49877;50.398;30.324;2022-08-18T07:32:35;23.90;99.90
18169;DHT22;49877;50.398;30.324;2022-08-18T07:35:06;24.00;99.90
18169;DHT22;49877;50.398;30.324;2022-08-18T07:37:39;24.10;99.90
18169;DHT22;49877;50.398;30.324;2022-08-18T07:40:18;24.10;99.90
18169;DHT22;49877;50.398;30.324;2022-08-18T07:42:50;24.20;99.90
18169;DHT22;49877;50.398;30.324;2022-08-18T07:45:22;24.30;99.90
18169;DHT22;49877;50.398;30.324;2022-08-18T07:47:54;24.40;99.90
18169;DHT22;49877;50.398;30.324;2022-08-18T07:50:23;24.40;99.90
18169;DHT22;49877;50.398;30.324;2022-08-18T07:53:01;24.50;99.90
18169;DHT22;49877;50.398;30.324;2022-08-18T07:55:35;24.50;99.90
18169;DHT22;49877;50.398;30.324;2022-08-18T07:58:13;24.60;99.90
18169;DHT22;49877;50.398;30.324;2022-08-18T08:00:49;24.60;99.90
18169;DHT22;49877;50.398;30.324;2022-08-18T08:03:28;24.70;99.90
18169;DHT22;49877;50.398;30.324;2022-08-18T08:06:02;24.80;99.90
18169;DHT22;49877;50.398;30.324;2022-08-18T08:08:36;24.80;99.90
18169;DHT22;49877;50.398;30.324;2022-08-18T08:11:19;24.80;99.90
18169;DHT22;49877;50.398;30.324;2022-08-18T08:14:00;24.90;99.90
18169;DHT22;49877;50.398;30.324;2022-08-18T08:16:42;25.00;99.90
18169;DHT22;49877;50.398;30.324;2022-08-18T08:19:31;25.10;99.90
18169;DHT22;49877;50.398;30.324;2022-08-18T08:22:04;25.20;99.90
18169;DHT22;49877;50.398;30.324;2022-08-18T08:24:39;25.20;99.90
18169;DHT22;49877;50.398;30.324;2022-08-18T08:27:14;25.20;99.90
18169;DHT22;49877;50.398;30.324;2022-08-18T08:29:46;25.30;99.90
18169;DHT22;49877;50.398;30.324;2022-08-18T08:32:19;25.30;99.90
18169;DHT22;49877;50.398;30.324;2022-08-18T08:34:51;25.40;99.90
18169;DHT22;49877;50.398;30.324;2022-08-18T08:37:26;25.40;99.90
18169;DHT22;49877;50.398;30.324;2022-08-18T08:40:00;25.40;99.90
18169;DHT22;49877;50.398;30.324;2022-08-18T08:42:38;25.40;99.90
18169;DHT22;49877;50.398;30.324;2022-08-18T08:45:09;25.40;99.90
18169;DHT22;49877;50.398;30.324;2022-08-18T08:47:41;25.50;99.90
18169;DHT22;49877;50.398;30.324;2022-08-18T08:50:13;25.50;99.90
18169;DHT22;49877;50.398;30.324;2022-08-18T08:52:45;25.50;99.90
18169;DHT22;49877;50.398;30.324;2022-08-18T08:55:15;25.50;99.90
18169;DHT22;49877;50.398;30.324;2022-08-18T08:57:48;25.60;99.90
18169;DHT22;49877;50.398;30.324;2022-08-18T09:00:16;25.70;99.90
18169;DHT22;49877;50.398;30.324;2022-08-18T09:03:01;25.60;99.90
18169;DHT22;49877;50.398;30.324;2022-08-18T09:05:36;25.70;99.90
18169;DHT22;49877;50.398;30.324;2022-08-18T09:08:30;25.70;99.90
18169;DHT22;49877;50.398;30.324;2022-08-18T09:11:16;25.70;99.90
18169;DHT22;49877;50.398;30.324;2022-08-18T09:14:01;25.70;99.90
18169;DHT22;49877;50.398;30.324;2022-08-18T09:16:40;25.70;99.90
18169;DHT22;49877;50.398;30.324;2022-08-18T09:19:20;25.70;99.90
18169;DHT22;49877;50.398;30.324;2022-08-18T09:21:57;25.70;99.90
18169;DHT22;49877;50.398;30.324;2022-08-18T09:24:40;25.70;99.90
18169;DHT22;49877;50.398;30.324;2022-08-18T09:27:14;25.70;99.90
18169;DHT22;49877;50.398;30.324;2022-08-18T09:29:50;25.80;99.90
18169;DHT22;49877;50.398;30.324;2022-08-18T09:32:54;25.90;99.90
18169;DHT22;49877;50.398;30.324;2022-08-18T09:38:28;26.00;99.90
18169;DHT22;49877;50.398;30.324;2022-08-18T09:41:16;26.00;99.90
18169;DHT22;49877;50.398;30.324;2022-08-18T09:44:02;26.00;99.90
18169;DHT22;49877;50.398;30.324;2022-08-18T09:46:55;26.00;99.90
18169;DHT22;49877;50.398;30.324;2022-08-18T09:49:43;26.00;99.90
18169;DHT22;49877;50.398;30.324;2022-08-18T09:55:53;26.10;99.90
18169;DHT22;49877;50.398;30.324;2022-08-18T10:01:40;26.00;99.90
18169;DHT22;49877;50.398;30.324;2022-08-18T10:04:27;26.00;99.90
18169;DHT22;49877;50.398;30.324;2022-08-18T10:07:17;26.00;99.90
18169;DHT22;49877;50.398;30.324;2022-08-18T10:09:55;26.10;99.90
18169;DHT22;49877;50.398;30.324;2022-08-18T10:12:54;26.20;99.90
18169;DHT22;49877;50.398;30.324;2022-08-18T10:15:46;26.20;99.90
18169;DHT22;49877;50.398;30.324;2022-08-18T10:21:20;26.30;99.90
18169;DHT22;49877;50.398;30.324;2022-08-18T10:23:56;26.40;99.90
18169;DHT22;49877;50.398;30.324;2022-08-18T10:29:52;26.40;99.90
18169;DHT22;49877;50.398;30.324;2022-08-18T10:32:41;26.50;99.90
18169;DHT22;49877;50.398;30.324;2022-08-18T10:38:43;26.70;99.90
18169;DHT22;49877;50.398;30.324;2022-08-18T10:41:21;26.80;99.90
18169;DHT22;49877;50.398;30.324;2022-08-18T10:43:51;26.80;99.90
18169;DHT22;49877;50.398;30.324;2022-08-18T10:46:21;26.80;99.90
18169;DHT22;49877;50.398;30.324;2022-08-18T10:49:06;26.80;99.90
18169;DHT22;49877;50.398;30.324;2022-08-18T10:51:51;26.90;99.90
18169;DHT22;49877;50.398;30.324;2022-08-18T10:54:32;26.90;99.90
18169;DHT22;49877;50.398;30.324;2022-08-18T10:57:09;26.90;99.90
18169;DHT22;49877;50.398;30.324;2022-08-18T10:59:42;27.00;99.90
18169;DHT22;49877;50.398;30.324;2022-08-18T11:02:32;27.10;99.90
18169;DHT22;49877;50.398;30.324;2022-08-18T11:05:05;27.10;99.90
18169;DHT22;49877;50.398;30.324;2022-08-18T11:07:33;27.20;99.90
18169;DHT22;49877;50.398;30.324;2022-08-18T11:10:17;27.20;99.90
18169;DHT22;49877;50.398;30.324;2022-08-18T11:13:04;27.30;99.90
18169;DHT22;49877;50.398;30.324;2022-08-18T11:15:39;27.30;99.90
18169;DHT22;49877;50.398;30.324;2022-08-18T11:18:18;27.40;99.90
18169;DHT22;49877;50.398;30.324;2022-08-18T11:20:53;27.40;99.90
18169;DHT22;49877;50.398;30.324;2022-08-18T11:23:20;27.40;99.90
18169;DHT22;49877;50.398;30.324;2022-08-18T11:25:49;27.40;99.90
18169;DHT22;49877;50.398;30.324;2022-08-18T11:28:18;27.40;99.90
18169;DHT22;49877;50.398;30.324;2022-08-18T11:30:48;27.50;99.90
18169;DHT22;49877;50.398;30.324;2022-08-18T11:33:18;27.50;99.90
18169;DHT22;49877;50.398;30.324;2022-08-18T11:35:48;27.50;99.90
18169;DHT22;49877;50.398;30.324;2022-08-18T11:38:17;27.60;99.90
18169;DHT22;49877;50.398;30.324;2022-08-18T11:40:46;27.60;99.90
18169;DHT22;49877;50.398;30.324;2022-08-18T11:43:18;27.60;99.90
18169;DHT22;49877;50.398;30.324;2022-08-18T11:45:53;27.70;99.90
18169;DHT22;49877;50.398;30.324;2022-08-18T11:48:31;27.70;99.90
18169;DHT22;49877;50.398;30.324;2022-08-18T11:51:10;27.70;99.90
18169;DHT22;49877;50.398;30.324;2022-08-18T11:53:51;27.70;99.90
18169;DHT22;49877;50.398;30.324;2022-08-18T11:56:22;27.70;99.90
18169;DHT22;49877;50.398;30.324;2022-08-18T11:58:53;27.70;99.90
18169;DHT22;49877;50.398;30.324;2022-08-18T12:01:35;27.70;99.90
18169;DHT22;49877;50.398;30.324;2022-08-18T12:04:13;27.70;99.90
18169;DHT22;49877;50.398;30.324;2022-08-18T12:07:00;27.70;99.90
18169;DHT22;49877;50.398;30.324;2022-08-18T12:09:38;27.70;99.90
18169;DHT22;49877;50.398;30.324;2022-08-18T12:12:24;27.70;99.90
18169;DHT22;49877;50.398;30.324;2022-08-18T12:14:56;27.70;99.90
18169;DHT22;49877;50.398;30.324;2022-08-18T12:17:24;27.80;99.90
18169;DHT22;49877;50.398;30.324;2022-08-18T12:19:51;27.80;99.90
18169;DHT22;49877;50.398;30.324;2022-08-18T12:22:20;27.80;99.90
18169;DHT22;49877;50.398;30.324;2022-08-18T12:24:47;27.80;99.90
18169;DHT22;49877;50.398;30.324;2022-08-18T12:27:18;27.80;99.90
18169;DHT22;49877;50.398;30.324;2022-08-18T12:29:46;27.80;99.90
18169;DHT22;49877;50.398;30.324;2022-08-18T12:32:14;27.90;99.90
18169;DHT22;49877;50.398;30.324;2022-08-18T12:34:41;27.90;99.90
18169;DHT22;49877;50.398;30.324;2022-08-18T12:37:09;28.00;99.90
18169;DHT22;49877;50.398;30.324;2022-08-18T12:39:36;28.00;99.90
18169;DHT22;49877;50.398;30.324;2022-08-18T12:42:03;28.00;99.90
18169;DHT22;49877;50.398;30.324;2022-08-18T12:44:30;28.10;99.90
18169;DHT22;49877;50.398;30.324;2022-08-18T12:46:58;28.10;99.90
18169;DHT22;49877;50.398;30.324;2022-08-18T12:49:28;28.00;99.90
18169;DHT22;49877;50.398;30.324;2022-08-18T12:51:55;28.00;99.90
18169;DHT22;49877;50.398;30.324;2022-08-18T12:54:22;28.10;99.90
18169;DHT22;49877;50.398;30.324;2022-08-18T12:56:51;28.10;99.90
18169;DHT22;49877;50.398;30.324;2022-08-18T12:59:19;28.10;99.90
18169;DHT22;49877;50.398;30.324;2022-08-18T13:01:46;28.10;99.90
18169;DHT22;49877;50.398;30.324;2022-08-18T13:04:13;28.20;99.90
18169;DHT22;49877;50.398;30.324;2022-08-18T13:06:46;28.20;99.90
18169;DHT22;49877;50.398;30.324;2022-08-18T13:09:13;28.20;99.90
18169;DHT22;49877;50.398;30.324;2022-08-18T13:11:40;28.20;99.90
18169;DHT22;49877;50.398;30.324;2022-08-18T13:14:07;28.20;99.90
18169;DHT22;49877;50.398;30.324;2022-08-18T13:16:36;28.20;99.90
18169;DHT22;49877;50.398;30.324;2022-08-18T13:19:04;28.20;99.90
18169;DHT22;49877;50.398;30.324;2022-08-18T13:21:31;28.20;99.90
18169;DHT22;49877;50.398;30.324;2022-08-18T13:23:59;28.30;99.90
18169;DHT22;49877;50.398;30.324;2022-08-18T13:26:29;28.30;99.90
18169;DHT22;49877;50.398;30.324;2022-08-18T13:28:57;28.30;99.90
18169;DHT22;49877;50.398;30.324;2022-08-18T13:31:24;28.30;99.90
18169;DHT22;49877;50.398;30.324;2022-08-18T13:33:52;28.20;99.90
18169;DHT22;49877;50.398;30.324;2022-08-18T13:36:19;28.20;99.90
18169;DHT22;49877;50.398;30.324;2022-08-18T13:38:46;28.20;99.90
18169;DHT22;49877;50.398;30.324;2022-08-18T13:41:14;28.30;99.90
18169;DHT22;49877;50.398;30.324;2022-08-18T13:43:42;28.30;99.90
18169;DHT22;49877;50.398;30.324;2022-08-18T13:46:13;28.30;99.90
18169;DHT22;49877;50.398;30.324;2022-08-18T13:48:40;28.30;99.90
18169;DHT22;49877;50.398;30.324;2022-08-18T13:51:09;28.30;99.90
18169;DHT22;49877;50.398;30.324;2022-08-18T13:53:39;28.40;99.90
18169;DHT22;49877;50.398;30.324;2022-08-18T13:56:06;28.40;99.90
18169;DHT22;49877;50.398;30.324;2022-08-18T13:58:35;28.40;99.90
18169;DHT22;49877;50.398;30.324;2022-08-18T14:01:05;28.40;99.90
18169;DHT22;49877;50.398;30.324;2022-08-18T14:03:34;28.40;99.90
18169;DHT22;49877;50.398;30.324;2022-08-18T14:06:01;28.50;99.90
18169;DHT22;49877;50.398;30.324;2022-08-18T14:08:28;28.50;99.90
18169;DHT22;49877;50.398;30.324;2022-08-18T14:10:57;28.50;99.90
18169;DHT22;49877;50.398;30.324;2022-08-18T14:13:25;28.50;99.90
18169;DHT22;49877;50.398;30.324;2022-08-18T14:15:55;28.50;99.90
18169;DHT22;49877;50.398;30.324;2022-08-18T14:18:23;28.60;99.90
18169;DHT22;49877;50.398;30.324;2022-08-18T14:20:51;28.60;99.90
18169;DHT22;49877;50.398;30.324;2022-08-18T14:23:35;28.60;99.90
18169;DHT22;49877;50.398;30.324;2022-08-18T14:26:19;28.60;99.90
18169;DHT22;49877;50.398;30.324;2022-08-18T14:29:04;28.60;99.90
18169;DHT22;49877;50.398;30.324;2022-08-18T14:31:32;28.60;99.90
18169;DHT22;49877;50.398;30.324;2022-08-18T14:33:59;28.60;99.90
18169;DHT22;49877;50.398;30.324;2022-08-18T14:36:26;28.60;99.90
18169;DHT22;49877;50.398;30.324;2022-08-18T14:38:53;28.60;99.90
18169;DHT22;49877;50.398;30.324;2022-08-18T14:41:20;28.60;99.90
18169;DHT22;49877;50.398;30.324;2022-08-18T14:43:47;28.60;99.90
18169;DHT22;49877;50.398;30.324;2022-08-18T14:46:17;28.60;99.90
18169;DHT22;49877;50.398;30.324;2022-08-18T14:48:45;28.60;99.90
18169;DHT22;49877;50.398;30.324;2022-08-18T14:51:12;28.60;99.90
18169;DHT22;49877;50.398;30.324;2022-08-18T14:53:39;28.50;99.90
18169;DHT22;49877;50.398;30.324;2022-08-18T14:56:06;28.50;99.90
18169;DHT22;49877;50.398;30.324;2022-08-18T14:58:34;28.50;99.90
18169;DHT22;49877;50.398;30.324;2022-08-18T15:01:05;28.50;99.90
18169;DHT22;49877;50.398;30.324;2022-08-18T15:03:33;28.50;99.90
18169;DHT22;49877;50.398;30.324;2022-08-18T15:06:04;28.40;99.90
18169;DHT22;49877;50.398;30.324;2022-08-18T15:08:32;28.40;99.90
18169;DHT22;49877;50.398;30.324;2022-08-18T15:11:00;28.50;99.90
18169;DHT22;49877;50.398;30.324;2022-08-18T15:13:28;28.40;99.90
18169;DHT22;49877;50.398;30.324;2022-08-18T15:15:54;28.40;99.90
18169;DHT22;49877;50.398;30.324;2022-08-18T15:18:21;28.40;99.90
18169;DHT22;49877;50.398;30.324;2022-08-18T15:20:49;28.40;99.90
18169;DHT22;49877;50.398;30.324;2022-08-18T15:23:35;28.40;99.90
18169;DHT22;49877;50.398;30.324;2022-08-18T15:26:23;28.40;99.90
18169;DHT22;49877;50.398;30.324;2022-08-18T15:28:50;28.40;99.90
18169;DHT22;49877;50.398;30.324;2022-08-18T15:31:17;28.30;99.90
18169;DHT22;49877;50.398;30.324;2022-08-18T15:33:44;28.30;99.90
18169;DHT22;49877;50.398;30.324;2022-08-18T15:36:11;28.30;99.90
18169;DHT22;49877;50.398;30.324;2022-08-18T15:38:48;28.40;99.90
18169;DHT22;49877;50.398;30.324;2022-08-18T15:41:28;28.40;99.90
18169;DHT22;49877;50.398;30.324;2022-08-18T15:43:55;28.40;99.90
18169;DHT22;49877;50.398;30.324;2022-08-18T15:46:22;28.40;99.90
18169;DHT22;49877;50.398;30.324;2022-08-18T15:48:50;28.40;99.90
18169;DHT22;49877;50.398;30.324;2022-08-18T15:51:17;28.40;99.90
18169;DHT22;49877;50.398;30.324;2022-08-18T15:53:44;28.40;99.90
18169;DHT22;49877;50.398;30.324;2022-08-18T15:56:14;28.30;99.90
18169;DHT22;49877;50.398;30.324;2022-08-18T15:58:41;28.30;99.90
18169;DHT22;49877;50.398;30.324;2022-08-18T16:01:09;28.30;99.90
18169;DHT22;49877;50.398;30.324;2022-08-18T16:03:37;28.20;99.90
18169;DHT22;49877;50.398;30.324;2022-08-18T16:06:05;28.20;99.90